Time;durP1;ratioP1;P1;durP2;ratioP2;P2;SDS_P1;SDS_P2;PMS_P1;PMS_P2;Temp;Humidity;BMP_temperature;BMP_pressure;BME280_temperature;BME280_humidity;BME280_pressure;Samples;Min_cycle;Max_cycle;Signal;HPM_P1;HPM_P2
2022/12/23 00:00:42;;;;;;;1999.90;999.90;;;11.00;99.90;;;;;;5032403;28;20411;-68
2022/12/23 00:03:08;;;;;;;1999.90;999.90;;;11.40;99.90;;;;;;5036251;28;20422;-68
2022/12/23 00:05:38;;;;;;;1999.90;999.90;;;11.40;99.90;;;;;;5036194;28;20487;-66
2022/12/23 00:08:04;;;;;;;1999.90;999.90;;;11.20;99.90;;;;;;5034755;28;20653;-67
2022/12/23 00:10:30;;;;;;;1999.90;999.90;;;11.00;99.90;;;;;;5035917;28;20422;-66
2022/12/23 00:15:40;;;;;;;1999.90;999.90;;;11.10;99.90;;;;;;5036459;28;20211;-67
2022/12/23 00:18:05;;;;;;;1999.90;999.90;;;11.30;99.90;;;;;;5035717;28;20407;-67
2022/12/23 00:20:33;;;;;;;1999.90;999.90;;;;;;;;;;5035954;28;20168;-66
2022/12/23 00:23:04;;;;;;;1999.90;999.90;;;11.10;99.90;;;;;;5036138;28;20166;-66
2022/12/23 00:25:40;;;;;;;1999.90;999.90;;;11.30;99.90;;;;;;5035836;28;20435;-67
2022/12/23 00:28:10;;;;;;;1999.90;999.90;;;11.20;99.90;;;;;;5036538;28;20830;-66
2022/12/23 00:30:37;;;;;;;1999.90;999.90;;;11.10;99.90;;;;;;5035666;28;20435;-68
2022/12/23 00:33:03;;;;;;;1999.90;999.90;;;11.30;99.90;;;;;;5035684;28;20498;-67
2022/12/23 00:35:31;;;;;;;1999.90;999.90;;;11.10;99.90;;;;;;5035896;28;20501;-66
2022/12/23 00:37:56;;;;;;;1999.90;999.90;;;11.80;99.90;;;;;;5035350;28;21222;-66
2022/12/23 00:43:06;;;;;;;1999.90;999.90;;;11.30;99.90;;;;;;5035557;28;20554;-66
2022/12/23 00:45:32;;;;;;;1999.90;999.90;;;10.80;99.90;;;;;;5035792;28;20430;-66
2022/12/23 00:50:42;;;;;;;1999.90;999.90;;;11.00;99.90;;;;;;5036243;28;20237;-66
2022/12/23 00:53:07;;;;;;;1999.90;999.90;;;11.10;99.90;;;;;;5036530;28;20415;-66
2022/12/23 00:55:33;;;;;;;1999.90;999.90;;;10.80;99.90;;;;;;5035651;28;20804;-66
2022/12/23 00:57:58;;;;;;;1999.90;999.90;;;11.40;99.90;;;;;;5035458;28;20298;-68
2022/12/23 01:06:02;;;;;;;1999.90;999.90;;;11.20;99.90;;;;;;5036282;28;20412;-65
2022/12/23 01:08:28;;;;;;;1999.90;999.90;;;;;;;;;;5036623;28;20460;-66
2022/12/23 01:10:54;;;;;;;1999.90;999.90;;;11.20;99.90;;;;;;5036570;28;20411;-66
2022/12/23 01:13:20;;;;;;;1999.90;999.90;;;10.90;99.90;;;;;;5035287;28;20490;-66
2022/12/23 01:15:46;;;;;;;1999.90;999.90;;;11.60;99.90;;;;;;5036021;28;21123;-67
2022/12/23 01:18:12;;;;;;;1999.90;999.90;;;10.90;99.90;;;;;;5035901;28;20494;-67
2022/12/23 01:20:39;;;;;;;1999.90;999.90;;;11.10;99.90;;;;;;5035001;28;20402;-66
2022/12/23 01:23:05;;;;;;;1999.90;999.90;;;11.40;99.90;;;;;;5035223;28;20405;-66
2022/12/23 01:25:31;;;;;;;1999.90;999.90;;;11.20;99.90;;;;;;5035567;28;20441;-67
2022/12/23 01:27:56;;;;;;;1999.90;999.90;;;11.00;99.90;;;;;;5034609;28;20407;-67
2022/12/23 01:30:22;;;;;;;1999.90;999.90;;;11.00;99.90;;;;;;5035717;28;20502;-67
2022/12/23 01:32:47;;;;;;;1999.90;999.90;;;11.60;99.90;;;;;;5035681;28;20183;-67
2022/12/23 01:35:13;;;;;;;1999.90;999.90;;;11.10;99.90;;;;;;5035069;28;20207;-67
2022/12/23 01:37:39;;;;;;;1999.90;999.90;;;11.10;99.90;;;;;;5034812;28;20624;-66
2022/12/23 01:40:05;;;;;;;1999.90;999.90;;;11.70;99.90;;;;;;5034221;28;20561;-66
2022/12/23 01:42:43;;;;;;;1999.90;999.90;;;10.70;99.90;;;;;;5035423;28;20163;-66
2022/12/23 01:45:14;;;;;;;1999.90;999.90;;;10.80;99.90;;;;;;5034464;28;21099;-66
2022/12/23 01:47:47;;;;;;;1999.90;999.90;;;10.80;99.90;;;;;;5035013;28;20500;-66
2022/12/23 01:50:48;;;;;;;1999.90;999.90;;;11.10;99.90;;;;;;5035042;28;20908;-66
2022/12/23 01:53:17;;;;;;;1999.90;999.90;;;11.10;99.90;;;;;;5012441;28;20477;-67
2022/12/23 01:55:53;;;;;;;1999.90;999.90;;;10.90;99.90;;;;;;5030754;28;20487;-67
2022/12/23 01:58:30;;;;;;;1999.90;999.90;;;11.30;99.90;;;;;;5034847;28;20402;-66
2022/12/23 02:03:43;;;;;;;1999.90;999.90;;;10.70;99.90;;;;;;5035687;28;20417;-66
2022/12/23 02:12:16;;;;;;;1999.90;999.90;;;11.10;99.90;;;;;;5034710;28;20403;-67
2022/12/23 02:18:30;;;;;;;1999.90;999.90;;;11.10;99.90;;;;;;5029720;28;20413;-65
2022/12/23 02:21:20;;;;;;;1999.90;999.90;;;10.80;99.90;;;;;;5035200;28;20470;-67
2022/12/23 02:24:27;;;;;;;1999.90;999.90;;;11.10;99.90;;;;;;5034852;28;20429;-66
2022/12/23 02:27:08;;;;;;;1999.90;999.90;;;10.70;99.90;;;;;;5034849;28;20387;-67
2022/12/23 02:29:34;;;;;;;1999.90;999.90;;;10.80;99.90;;;;;;5034008;28;20444;-67
2022/12/23 02:32:19;;;;;;;1999.90;999.90;;;11.00;99.90;;;;;;5034850;28;20488;-66
2022/12/23 02:35:13;;;;;;;1999.90;999.90;;;10.80;99.90;;;;;;5032652;28;20205;-66
2022/12/23 02:37:51;;;;;;;1999.90;999.90;;;10.80;99.90;;;;;;5035261;28;20446;-67
2022/12/23 02:40:30;;;;;;;1999.90;999.90;;;11.10;99.90;;;;;;5035410;28;20421;-67
2022/12/23 02:43:35;;;;;;;1999.90;999.90;;;11.20;99.90;;;;;;5033766;28;20409;-66
2022/12/23 02:46:12;;;;;;;1999.90;999.90;;;11.10;99.90;;;;;;5028777;28;20422;-67
2022/12/23 02:48:53;;;;;;;1999.90;999.90;;;11.10;99.90;;;;;;5033539;28;20493;-66
2022/12/23 02:51:22;;;;;;;1999.90;999.90;;;11.20;99.90;;;;;;5033860;28;20415;-66
2022/12/23 02:53:53;;;;;;;1999.90;999.90;;;11.20;99.90;;;;;;5032858;28;20812;-67
2022/12/23 02:56:22;;;;;;;1999.90;999.90;;;10.90;99.90;;;;;;5033706;28;20489;-65
2022/12/23 02:58:59;;;;;;;1999.90;999.90;;;11.30;99.90;;;;;;5033715;28;20429;-67
2022/12/23 03:01:28;;;;;;;1999.90;999.90;;;10.90;99.90;;;;;;5032904;28;20926;-67
2022/12/23 03:03:53;;;;;;;1999.90;999.90;;;11.10;99.90;;;;;;5033395;28;20800;-67
2022/12/23 03:06:30;;;;;;;1999.90;999.90;;;11.70;99.90;;;;;;5033576;28;20422;-67
2022/12/23 03:08:58;;;;;;;1999.90;999.90;;;11.00;99.90;;;;;;5034231;28;20173;-66
2022/12/23 03:11:50;;;;;;;1999.90;999.90;;;10.70;99.90;;;;;;5033811;28;20410;-67
2022/12/23 03:15:33;;;;;;;1999.90;999.90;;;10.70;99.90;;;;;;5033558;28;20423;-66
2022/12/23 03:18:15;;;;;;;1999.90;999.90;;;10.90;99.90;;;;;;5011051;28;20526;-67
2022/12/23 03:20:55;;;;;;;1999.90;999.90;;;11.40;99.90;;;;;;5010433;28;21055;-67
2022/12/23 03:23:38;;;;;;;1999.90;999.90;;;10.90;99.90;;;;;;5032071;28;20618;-66
2022/12/23 03:26:17;;;;;;;1999.90;999.90;;;10.70;99.90;;;;;;5033166;28;20420;-67
2022/12/23 03:28:55;;;;;;;1999.90;999.90;;;11.00;99.90;;;;;;5033020;28;20403;-66
2022/12/23 03:31:27;;;;;;;1999.90;999.90;;;11.30;99.90;;;;;;5032391;28;20407;-67
2022/12/23 03:34:07;;;;;;;1999.90;999.90;;;10.70;99.90;;;;;;5032952;28;20433;-66
2022/12/23 03:36:41;;;;;;;1999.90;999.90;;;10.60;99.90;;;;;;5032772;28;20930;-67
2022/12/23 03:39:15;;;;;;;1999.90;999.90;;;10.70;99.90;;;;;;5032471;28;20401;-67
2022/12/23 03:41:44;;;;;;;1999.90;999.90;;;11.10;99.90;;;;;;5031694;28;20409;-66
2022/12/23 03:44:17;;;;;;;1999.90;999.90;;;11.10;99.90;;;;;;5033407;28;20450;-67
2022/12/23 03:46:53;;;;;;;1999.90;999.90;;;11.00;99.90;;;;;;5033969;28;20407;-66
2022/12/23 03:49:46;;;;;;;1999.90;999.90;;;11.30;99.90;;;;;;5032424;28;20402;-67
2022/12/23 03:52:16;;;;;;;1999.90;999.90;;;11.20;99.90;;;;;;5032486;28;20461;-66
2022/12/23 03:54:53;;;;;;;1999.90;999.90;;;11.20;99.90;;;;;;5064467;22;20519;-68
2022/12/23 03:57:21;;;;;;;1999.90;999.90;;;10.90;99.90;;;;;;5011500;28;20407;-69
2022/12/23 03:59:52;;;;;;;1999.90;999.90;;;10.90;99.90;;;;;;5011808;28;20395;-69
2022/12/23 04:02:31;;;;;;;1999.90;999.90;;;11.30;99.90;;;;;;5012105;28;20407;-68
2022/12/23 04:05:12;;;;;;;1999.90;999.90;;;10.90;99.90;;;;;;5011932;28;20784;-69
2022/12/23 04:07:41;;;;;;;1999.90;999.90;;;10.90;99.90;;;;;;5011584;28;20407;-69
2022/12/23 04:10:08;;;;;;;1999.90;999.90;;;11.00;99.90;;;;;;5011872;28;20454;-69
2022/12/23 04:12:34;;;;;;;1999.90;999.90;;;10.90;99.90;;;;;;5011783;28;20961;-69
2022/12/23 04:14:59;;;;;;;1999.90;999.90;;;10.70;99.90;;;;;;5011911;28;20464;-68
2022/12/23 04:17:25;;;;;;;1999.90;999.90;;;11.40;99.90;;;;;;5011717;28;20184;-69
2022/12/23 04:19:51;;;;;;;1999.90;999.90;;;11.00;99.90;;;;;;5011795;28;20179;-70
2022/12/23 04:22:17;;;;;;;1999.90;999.90;;;10.80;99.90;;;;;;5011969;28;20568;-69
2022/12/23 04:24:43;;;;;;;1999.90;999.90;;;11.00;99.90;;;;;;5011753;28;20425;-69
2022/12/23 04:27:14;;;;;;;1999.90;999.90;;;10.40;99.90;;;;;;5011487;28;20239;-69
2022/12/23 04:29:40;;;;;;;1999.90;999.90;;;10.90;99.90;;;;;;5011644;28;20660;-68
2022/12/23 04:32:06;;;;;;;1999.90;999.90;;;10.60;99.90;;;;;;5011868;28;20438;-69
2022/12/23 04:34:31;;;;;;;1999.90;999.90;;;10.70;99.90;;;;;;5011542;28;20479;-68
2022/12/23 04:36:57;;;;;;;1999.90;999.90;;;10.90;99.90;;;;;;5011508;28;20439;-69
2022/12/23 04:39:23;;;;;;;1999.90;999.90;;;10.50;99.90;;;;;;5011538;28;20540;-68
2022/12/23 04:41:48;;;;;;;1999.90;999.90;;;10.60;99.90;;;;;;5011830;28;20171;-68
2022/12/23 04:44:14;;;;;;;1999.90;999.90;;;10.10;99.90;;;;;;5011618;28;20652;-68
2022/12/23 04:46:39;;;;;;;1999.90;999.90;;;10.70;99.90;;;;;;5011455;28;20260;-69
2022/12/23 04:49:05;;;;;;;1999.90;999.90;;;10.50;99.90;;;;;;5014152;28;20179;-68
2022/12/23 04:51:31;;;;;;;1999.90;999.90;;;10.70;99.90;;;;;;5015067;28;20663;-68
2022/12/23 04:53:56;;;;;;;1999.90;999.90;;;11.20;99.90;;;;;;5014780;28;20502;-68
2022/12/23 04:56:22;;;;;;;1999.90;999.90;;;10.70;99.90;;;;;;5014662;28;20193;-68
2022/12/23 04:58:48;;;;;;;1999.90;999.90;;;10.60;99.90;;;;;;5014461;28;20169;-68
2022/12/23 05:01:13;;;;;;;1999.90;999.90;;;10.80;99.90;;;;;;5014896;28;20171;-69
2022/12/23 05:03:39;;;;;;;1999.90;999.90;;;10.50;99.90;;;;;;5014850;28;20172;-69
2022/12/23 05:06:05;;;;;;;1999.90;999.90;;;10.80;99.90;;;;;;5014677;28;20176;-69
2022/12/23 05:08:31;;;;;;;1999.90;999.90;;;10.80;99.90;;;;;;5014383;28;20400;-69
2022/12/23 05:10:57;;;;;;;1999.90;999.90;;;10.70;99.90;;;;;;5014717;28;20407;-68
2022/12/23 05:13:23;;;;;;;1999.90;999.90;;;10.40;99.90;;;;;;5014775;28;20404;-68
2022/12/23 05:15:50;;;;;;;1999.90;999.90;;;10.70;99.90;;;;;;5014457;28;20693;-69
2022/12/23 05:18:16;;;;;;;1999.90;999.90;;;10.50;99.90;;;;;;5014054;28;20404;-68
2022/12/23 05:20:42;;;;;;;1999.90;999.90;;;10.80;99.90;;;;;;5014473;28;20465;-69
2022/12/23 05:23:08;;;;;;;1999.90;999.90;;;10.70;99.90;;;;;;5014434;28;20165;-69
2022/12/23 05:25:35;;;;;;;1999.90;999.90;;;10.70;99.90;;;;;;5014293;28;20430;-69
2022/12/23 05:28:01;;;;;;;1999.90;999.90;;;10.70;99.90;;;;;;5013717;28;20539;-69
2022/12/23 05:30:26;;;;;;;1999.90;999.90;;;10.70;99.90;;;;;;5014328;28;20423;-69
2022/12/23 05:32:53;;;;;;;1999.90;999.90;;;10.70;99.90;;;;;;5014340;28;20403;-69
2022/12/23 05:35:20;;;;;;;1999.90;999.90;;;10.80;99.90;;;;;;5014196;28;20685;-69
2022/12/23 05:37:45;;;;;;;1999.90;999.90;;;10.90;99.90;;;;;;4993809;28;20405;-69
2022/12/23 05:40:11;;;;;;;1999.90;999.90;;;10.90;99.90;;;;;;4994512;28;20441;-69
2022/12/23 05:42:37;;;;;;;1999.90;999.90;;;10.90;99.90;;;;;;4994665;28;20176;-68
2022/12/23 05:45:03;;;;;;;1999.90;999.90;;;10.80;99.90;;;;;;4994412;28;20432;-69
2022/12/23 05:47:28;;;;;;;1999.90;999.90;;;10.80;99.90;;;;;;4993979;28;20595;-69
2022/12/23 05:49:54;;;;;;;1999.90;999.90;;;10.90;99.90;;;;;;4994284;28;20463;-69
2022/12/23 05:52:19;;;;;;;1999.90;999.90;;;10.90;99.90;;;;;;4994301;28;20170;-69
2022/12/23 05:54:45;;;;;;;1999.90;999.90;;;10.90;99.90;;;;;;4994274;28;20216;-68
2022/12/23 05:57:11;;;;;;;1999.90;999.90;;;10.90;99.90;;;;;;4993843;28;20176;-69
2022/12/23 05:59:37;;;;;;;1999.90;999.90;;;10.90;99.90;;;;;;4993020;28;20411;-68
2022/12/23 06:02:03;;;;;;;1999.90;999.90;;;11.00;99.90;;;;;;4994263;28;20488;-69
2022/12/23 06:04:28;;;;;;;1999.90;999.90;;;11.00;99.90;;;;;;4994115;28;20186;-68
2022/12/23 06:06:54;;;;;;;1999.90;999.90;;;10.90;99.90;;;;;;4993818;28;20930;-69
2022/12/23 06:09:20;;;;;;;1999.90;999.90;;;11.00;99.90;;;;;;4993464;28;20172;-68
2022/12/23 06:11:45;;;;;;;1999.90;999.90;;;10.90;99.90;;;;;;4993963;28;20194;-69
2022/12/23 06:14:11;;;;;;;1999.90;999.90;;;10.80;99.90;;;;;;4993856;28;20192;-68
2022/12/23 06:16:36;;;;;;;1999.90;999.90;;;10.70;99.90;;;;;;4993764;28;20178;-68
2022/12/23 06:19:02;;;;;;;1999.90;999.90;;;10.50;99.90;;;;;;4993952;28;20165;-69
2022/12/23 06:21:28;;;;;;;1999.90;999.90;;;10.70;99.90;;;;;;4993878;28;20230;-68
2022/12/23 06:23:53;;;;;;;1999.90;999.90;;;10.30;99.90;;;;;;4993676;28;20171;-68
2022/12/23 06:26:19;;;;;;;1999.90;999.90;;;10.50;99.90;;;;;;4993639;28;20802;-68
2022/12/23 06:28:44;;;;;;;1999.90;999.90;;;10.80;99.90;;;;;;4993470;28;20182;-68
2022/12/23 06:31:10;;;;;;;1999.90;999.90;;;10.50;99.90;;;;;;4993607;28;20172;-68
2022/12/23 06:33:36;;;;;;;1999.90;999.90;;;10.20;99.90;;;;;;4993604;28;20232;-69
2022/12/23 06:36:01;;;;;;;1999.90;999.90;;;10.50;99.90;;;;;;4993102;28;20304;-69
2022/12/23 06:38:27;;;;;;;1999.90;999.90;;;10.60;99.90;;;;;;4992948;28;20173;-69
2022/12/23 06:40:52;;;;;;;1999.90;999.90;;;10.70;99.90;;;;;;4993614;28;20585;-69
2022/12/23 06:43:18;;;;;;;1999.90;999.90;;;10.80;99.90;;;;;;4993396;28;20168;-69
2022/12/23 06:45:48;;;;;;;1999.90;999.90;;;10.50;99.90;;;;;;4993368;28;20199;-69
2022/12/23 06:48:14;;;;;;;1999.90;999.90;;;10.60;99.90;;;;;;4992754;28;20662;-69
2022/12/23 06:50:40;;;;;;;1999.90;999.90;;;10.60;99.90;;;;;;4993205;28;20439;-69
2022/12/23 06:53:06;;;;;;;1999.90;999.90;;;10.60;99.90;;;;;;4993262;28;20445;-69
2022/12/23 06:55:32;;;;;;;1999.90;999.90;;;10.30;99.90;;;;;;4993015;28;20704;-69
2022/12/23 06:57:57;;;;;;;1999.90;999.90;;;10.50;99.90;;;;;;4992449;28;20454;-69
2022/12/23 07:00:23;;;;;;;1999.90;999.90;;;10.60;99.90;;;;;;4993123;28;20586;-69
2022/12/23 07:02:49;;;;;;;1999.90;999.90;;;;;;;;;;4993093;28;20207;-69
2022/12/23 07:05:15;;;;;;;1999.90;999.90;;;10.40;99.90;;;;;;4992818;28;20303;-69
2022/12/23 07:07:41;;;;;;;1999.90;999.90;;;10.40;99.90;;;;;;4992364;28;20418;-69
2022/12/23 07:10:08;;;;;;;1999.90;999.90;;;10.40;99.90;;;;;;4992707;28;20854;-69
2022/12/23 07:12:33;;;;;;;1999.90;999.90;;;10.40;99.90;;;;;;4993325;28;20185;-69
2022/12/23 07:14:59;;;;;;;1999.90;999.90;;;10.30;99.90;;;;;;4993056;28;20793;-69
2022/12/23 07:17:24;;;;;;;1999.90;999.90;;;9.90;99.90;;;;;;4992748;28;20202;-69
2022/12/23 07:19:50;;;;;;;1999.90;999.90;;;10.60;99.90;;;;;;4992781;28;20656;-68
2022/12/23 07:22:15;;;;;;;1999.90;999.90;;;10.20;99.90;;;;;;4992823;28;20207;-68
2022/12/23 07:24:41;;;;;;;1999.90;999.90;;;10.40;99.90;;;;;;4992702;28;20728;-68
2022/12/23 07:27:07;;;;;;;1999.90;999.90;;;10.40;99.90;;;;;;4992579;28;20581;-68
2022/12/23 07:29:32;;;;;;;1999.90;999.90;;;10.60;99.90;;;;;;4992708;28;20168;-68
2022/12/23 07:31:59;;;;;;;1999.90;999.90;;;10.40;99.90;;;;;;4992601;28;20223;-68
2022/12/23 07:34:25;;;;;;;1999.90;999.90;;;10.30;99.90;;;;;;4992517;28;20718;-68
2022/12/23 07:36:50;;;;;;;1999.90;999.90;;;10.60;99.90;;;;;;4992535;28;20491;-66
2022/12/23 07:39:16;;;;;;;1999.90;999.90;;;10.50;99.90;;;;;;4992373;28;20231;-66
2022/12/23 07:41:41;;;;;;;1999.90;999.90;;;10.40;99.90;;;;;;4992588;28;20204;-68
2022/12/23 07:44:07;;;;;;;1999.90;999.90;;;10.40;99.90;;;;;;4992528;28;20239;-68
2022/12/23 07:46:33;;;;;;;1999.90;999.90;;;10.40;99.90;;;;;;4992337;28;20228;-69
2022/12/23 07:48:59;;;;;;;1999.90;999.90;;;10.50;99.90;;;;;;4992020;28;20412;-69
2022/12/23 07:51:24;;;;;;;1999.90;999.90;;;11.30;99.90;;;;;;4992625;28;20956;-68
2022/12/23 07:53:50;;;;;;;1999.90;999.90;;;10.50;99.90;;;;;;4992315;28;20530;-68
2022/12/23 07:56:17;;;;;;;1999.90;999.90;;;10.30;99.90;;;;;;4992242;28;20282;-68
2022/12/23 07:58:43;;;;;;;1999.90;999.90;;;10.20;99.90;;;;;;4991984;28;20428;-68
2022/12/23 08:01:08;;;;;;;1999.90;999.90;;;10.30;99.90;;;;;;4992436;28;20440;-68
2022/12/23 08:03:34;;;;;;;1999.90;999.90;;;10.40;99.90;;;;;;4992340;28;20267;-68
2022/12/23 08:06:06;;;;;;;1999.90;999.90;;;10.40;99.90;;;;;;4992021;28;20197;-68
2022/12/23 08:08:32;;;;;;;1999.90;999.90;;;10.60;99.90;;;;;;4991843;28;20412;-68
2022/12/23 08:11:01;;;;;;;1999.90;999.90;;;10.60;99.90;;;;;;4992321;28;20415;-68
2022/12/23 08:13:26;;;;;;;1999.90;999.90;;;10.40;99.90;;;;;;4992316;28;20443;-68
2022/12/23 08:15:57;;;;;;;1999.90;999.90;;;10.70;99.90;;;;;;4992067;28;21026;-68
2022/12/23 08:18:23;;;;;;;1999.90;999.90;;;10.70;99.90;;;;;;4992111;28;20576;-68
2022/12/23 08:21:05;;;;;;;1999.90;999.90;;;10.50;99.90;;;;;;4992071;28;20838;-68
2022/12/23 08:23:31;;;;;;;1999.90;999.90;;;10.60;99.90;;;;;;4994457;28;20412;-68
2022/12/23 08:26:01;;;;;;;1999.90;999.90;;;10.70;99.90;;;;;;4995802;28;20434;-69
2022/12/23 08:28:28;;;;;;;1999.90;999.90;;;10.90;99.90;;;;;;4995749;28;20408;-68
2022/12/23 08:30:54;;;;;;;1999.90;999.90;;;10.90;99.90;;;;;;4995874;28;20438;-68
2022/12/23 08:33:20;;;;;;;1999.90;999.90;;;10.90;99.90;;;;;;4995874;28;20412;-68
2022/12/23 08:35:45;;;;;;;1999.90;999.90;;;10.80;99.90;;;;;;4995697;28;20831;-68
2022/12/23 08:38:11;;;;;;;1999.90;999.90;;;10.60;99.90;;;;;;4995562;28;20168;-69
2022/12/23 08:40:39;;;;;;;1999.90;999.90;;;11.00;99.90;;;;;;4995678;28;20562;-68
2022/12/23 08:43:05;;;;;;;1999.90;999.90;;;10.70;99.90;;;;;;4995546;28;20593;-68
2022/12/23 08:45:35;;;;;;;1999.90;999.90;;;10.70;99.90;;;;;;4995746;28;20435;-68
2022/12/23 08:48:01;;;;;;;1999.90;999.90;;;10.60;99.90;;;;;;4994833;28;20175;-68
2022/12/23 08:50:26;;;;;;;1999.90;999.90;;;10.90;99.90;;;;;;4995512;28;20470;-68
2022/12/23 08:52:52;;;;;;;1999.90;999.90;;;10.50;99.90;;;;;;4995451;28;20639;-68
2022/12/23 08:55:18;;;;;;;1999.90;999.90;;;;;;;;;;4995082;28;20230;-68
2022/12/23 08:57:43;;;;;;;1999.90;999.90;;;10.60;99.90;;;;;;4994501;28;20171;-66
2022/12/23 09:00:10;;;;;;;1999.90;999.90;;;10.60;99.90;;;;;;4995304;28;20431;-66
2022/12/23 09:02:36;;;;;;;1999.90;999.90;;;10.60;99.90;;;;;;4995281;28;20523;-66
2022/12/23 09:05:02;;;;;;;1999.90;999.90;;;10.60;99.90;;;;;;4994908;28;20473;-66
2022/12/23 09:07:27;;;;;;;1999.90;999.90;;;10.40;99.90;;;;;;4994939;28;20177;-66
2022/12/23 09:09:53;;;;;;;1999.90;999.90;;;10.30;99.90;;;;;;4995074;28;20239;-66
2022/12/23 09:12:18;;;;;;;1999.90;999.90;;;10.50;99.90;;;;;;4995047;28;20176;-66
2022/12/23 09:14:46;;;;;;;1999.90;999.90;;;10.50;99.90;;;;;;4994960;28;20585;-66
2022/12/23 09:17:12;;;;;;;1999.90;999.90;;;10.60;99.90;;;;;;4994773;28;20175;-67
2022/12/23 09:19:38;;;;;;;1999.90;999.90;;;10.30;99.90;;;;;;4994887;28;20494;-66
2022/12/23 09:22:03;;;;;;;1999.90;999.90;;;10.60;99.90;;;;;;4994920;28;20404;-66
2022/12/23 09:24:29;;;;;;;1999.90;999.90;;;10.70;99.90;;;;;;4994857;28;20206;-66
2022/12/23 09:26:54;;;;;;;1999.90;999.90;;;10.60;99.90;;;;;;4994735;28;20181;-66
2022/12/23 09:29:20;;;;;;;1999.90;999.90;;;10.60;99.90;;;;;;4994666;28;20650;-66
2022/12/23 09:31:46;;;;;;;1999.90;999.90;;;10.60;99.90;;;;;;4994835;28;20251;-66
2022/12/23 09:34:11;;;;;;;1999.90;999.90;;;10.80;99.90;;;;;;4994385;28;20189;-66
2022/12/23 09:36:37;;;;;;;1999.90;999.90;;;10.90;99.90;;;;;;4994567;28;20287;-66
2022/12/23 09:39:03;;;;;;;1999.90;999.90;;;11.00;99.90;;;;;;4994468;28;20192;-67
2022/12/23 09:41:51;;;;;;;1999.90;999.90;;;10.90;99.90;;;;;;4994562;28;20161;-66
2022/12/23 09:44:57;;;;;;;1999.90;999.90;;;10.80;99.90;;;;;;4994316;28;20431;-67
2022/12/23 09:47:25;;;;;;;1999.90;999.90;;;10.70;99.90;;;;;;4984191;28;20423;-67
2022/12/23 09:49:55;;;;;;;1999.90;999.90;;;10.80;99.90;;;;;;4994235;28;20495;-66
2022/12/23 09:52:40;;;;;;;1999.90;999.90;;;10.80;99.90;;;;;;4994808;28;20914;-69
2022/12/23 09:55:10;;;;;;;1999.90;999.90;;;10.60;99.90;;;;;;4994568;28;20482;-69
2022/12/23 09:57:48;;;;;;;1999.90;999.90;;;10.70;99.90;;;;;;4994039;28;20400;-69
2022/12/23 10:00:16;;;;;;;1999.90;999.90;;;10.70;99.90;;;;;;4994204;28;20404;-69
2022/12/23 10:02:58;;;;;;;1999.90;999.90;;;10.90;99.90;;;;;;4994207;28;20446;-69
2022/12/23 10:05:51;;;;;;;1999.90;999.90;;;10.60;99.90;;;;;;4994057;28;20417;-69
2022/12/23 10:08:26;;;;;;;1999.90;999.90;;;11.00;99.90;;;;;;4993879;28;20507;-68
2022/12/23 10:10:55;;;;;;;1999.90;999.90;;;10.60;99.90;;;;;;5008059;28;20446;-66
2022/12/23 10:13:41;;;;;;;1999.90;999.90;;;11.60;99.90;;;;;;5010865;28;20406;-66
2022/12/23 10:16:15;;;;;;;1999.90;999.90;;;11.00;99.90;;;;;;5010341;28;20467;-65
2022/12/23 10:19:15;;;;;;;1999.90;999.90;;;11.00;99.90;;;;;;5007303;28;20462;-65
2022/12/23 10:21:48;;;;;;;1999.90;999.90;;;11.00;99.90;;;;;;5011022;28;20455;-65
2022/12/23 10:24:22;;;;;;;1999.90;999.90;;;11.00;99.90;;;;;;5010967;28;20489;-65
2022/12/23 10:26:54;;;;;;;1999.90;999.90;;;11.10;99.90;;;;;;5011022;28;20550;-66
2022/12/23 10:29:25;;;;;;;1999.90;999.90;;;10.70;99.90;;;;;;5010706;28;20773;-65
2022/12/23 10:32:13;;;;;;;1999.90;999.90;;;10.90;99.90;;;;;;5010352;28;20399;-66
2022/12/23 10:34:57;;;;;;;1999.90;999.90;;;11.20;99.90;;;;;;5010950;28;20509;-66
2022/12/23 10:37:22;;;;;;;1999.90;999.90;;;10.80;99.90;;;;;;5011279;28;20412;-66
2022/12/23 10:40:06;;;;;;;1999.90;999.90;;;10.90;99.90;;;;;;5011592;28;20400;-66
2022/12/23 10:42:38;;;;;;;1999.90;999.90;;;11.00;99.90;;;;;;5010037;28;20183;-66
2022/12/23 10:45:24;;;;;;;1999.90;999.90;;;10.90;99.90;;;;;;5010208;28;20431;-66
2022/12/23 10:47:50;;;;;;;1999.90;999.90;;;11.00;99.90;;;;;;5010383;28;21096;-68
2022/12/23 10:50:50;;;;;;;1999.90;999.90;;;10.80;99.90;;;;;;5010981;28;20399;-67
2022/12/23 10:53:44;;;;;;;1999.90;999.90;;;10.90;99.90;;;;;;5003800;28;20228;-66
2022/12/23 10:56:09;;;;;;;1999.90;999.90;;;11.00;99.90;;;;;;5007774;28;20543;-66
2022/12/23 10:58:39;;;;;;;1999.90;999.90;;;10.60;99.90;;;;;;5008745;28;21248;-66
2022/12/23 11:01:07;;;;;;;1999.90;999.90;;;11.10;99.90;;;;;;5010290;28;20411;-66
2022/12/23 11:04:01;;;;;;;1999.90;999.90;;;11.10;99.90;;;;;;5010683;28;20435;-66
2022/12/23 11:06:27;;;;;;;1999.90;999.90;;;11.10;99.90;;;;;;5010705;28;20395;-66
2022/12/23 11:08:55;;;;;;;1999.90;999.90;;;10.90;99.90;;;;;;5009870;28;20454;-66
2022/12/23 11:11:20;;;;;;;1999.90;999.90;;;11.10;99.90;;;;;;5010647;28;20841;-66
2022/12/23 11:13:46;;;;;;;1999.90;999.90;;;11.20;99.90;;;;;;5010030;28;20445;-66
2022/12/23 11:16:21;;;;;;;1999.90;999.90;;;11.20;99.90;;;;;;5010345;28;20223;-66
2022/12/23 11:18:57;;;;;;;1999.90;999.90;;;11.10;99.90;;;;;;5002206;28;20403;-66
2022/12/23 11:21:22;;;;;;;1999.90;999.90;;;11.10;99.90;;;;;;5009439;28;20430;-65
2022/12/23 11:24:12;;;;;;;1999.90;999.90;;;11.30;99.90;;;;;;5010297;28;20753;-66
2022/12/23 11:26:38;;;;;;;1999.90;999.90;;;10.90;99.90;;;;;;5010788;28;20179;-66
2022/12/23 11:29:09;;;;;;;1999.90;999.90;;;10.90;99.90;;;;;;5010344;28;20402;-66
2022/12/23 11:31:36;;;;;;;1999.90;999.90;;;;;;;;;;5010231;28;20176;-76
2022/12/23 11:34:05;;;;;;;1999.90;999.90;;;10.90;99.90;;;;;;5009495;28;20458;-72
2022/12/23 11:36:32;;;;;;;1999.90;999.90;;;10.90;99.90;;;;;;5010630;28;20482;-67
2022/12/23 11:39:17;;;;;;;1999.90;999.90;;;11.00;99.90;;;;;;5009929;28;20409;-69
2022/12/23 11:41:46;;;;;;;1999.90;999.90;;;10.70;99.90;;;;;;5010657;28;20428;-70
2022/12/23 11:44:32;;;;;;;1999.90;999.90;;;10.90;99.90;;;;;;5010917;28;20462;-70
2022/12/23 11:47:18;;;;;;;1999.90;999.90;;;10.60;99.90;;;;;;5011366;28;20490;-70
2022/12/23 11:50:24;;;;;;;1999.90;999.90;;;11.00;99.90;;;;;;5011763;28;20889;-70
2022/12/23 11:52:52;;;;;;;1999.90;999.90;;;10.90;99.90;;;;;;5010796;28;20502;-70
2022/12/23 11:55:27;;;;;;;1999.90;999.90;;;10.80;99.90;;;;;;5011364;28;20872;-70
2022/12/23 11:57:55;;;;;;;1999.90;999.90;;;10.70;99.90;;;;;;5014307;28;20441;-69
2022/12/23 12:00:25;;;;;;;1999.90;999.90;;;10.70;99.90;;;;;;5015480;28;20414;-70
2022/12/23 12:02:57;;;;;;;1999.90;999.90;;;10.60;99.90;;;;;;5015699;28;20502;-70
2022/12/23 12:05:35;;;;;;;1999.90;999.90;;;10.70;99.90;;;;;;5015305;28;20439;-70
2022/12/23 12:08:05;;;;;;;1999.90;999.90;;;10.70;99.90;;;;;;5014532;28;20444;-70
2022/12/23 12:10:35;;;;;;;1999.90;999.90;;;10.50;99.90;;;;;;5015784;28;20464;-71
2022/12/23 12:13:06;;;;;;;1999.90;999.90;;;10.50;99.90;;;;;;5015685;28;20449;-68
2022/12/23 12:15:35;;;;;;;1999.90;999.90;;;10.40;99.90;;;;;;5014576;28;20501;-68
2022/12/23 12:18:05;;;;;;;1999.90;999.90;;;10.50;99.90;;;;;;5014839;28;20502;-68
2022/12/23 12:20:45;;;;;;;1999.90;999.90;;;10.60;99.90;;;;;;5015454;28;20494;-68
2022/12/23 12:23:17;;;;;;;1999.90;999.90;;;10.50;99.90;;;;;;5015002;28;20466;-68
2022/12/23 12:26:06;;;;;;;1999.90;999.90;;;10.60;99.90;;;;;;5015057;28;20488;-68
2022/12/23 12:28:37;;;;;;;1999.90;999.90;;;10.40;99.90;;;;;;5014504;28;20465;-69
2022/12/23 12:31:03;;;;;;;1999.90;999.90;;;;;;;;;;5014834;28;20415;-68
2022/12/23 12:33:31;;;;;;;1999.90;999.90;;;10.50;99.90;;;;;;5015321;28;20839;-68
2022/12/23 12:36:06;;;;;;;1999.90;999.90;;;10.70;99.90;;;;;;5014331;28;20855;-68
2022/12/23 12:38:34;;;;;;;1999.90;999.90;;;10.70;99.90;;;;;;5014234;28;20404;-68
2022/12/23 12:41:16;;;;;;;1999.90;999.90;;;10.90;99.90;;;;;;5015068;28;20881;-68
2022/12/23 12:43:56;;;;;;;1999.90;999.90;;;10.70;99.90;;;;;;5014588;28;20490;-68